This is the latest recevied weather packets stored in our database for station/object VA7NEZ. If no packets are shown the sender has not sent any weather packets the latest 10 day(s).
| Time | Temp. | Humidity | Pressure | Rain* | Wind** | Luminosity | Snow |
|---|---|---|---|---|---|---|---|
| 1777944091 | 0° C | 100% | 1008.6 hPa | 0 mm | - | - | - |
| 1777943606 | 30.56° C | 20% | 1008.7 hPa | 0 mm | - | - | - |
| 1777942556 | 30.56° C | 19% | 1008.8 hPa | 0 mm | - | - | - |
| 1777941986 | 0° C | 100% | 1008.7 hPa | 0 mm | - | - | - |
| 1777941461 | 30.56° C | 20% | 1008.8 hPa | 0 mm | - | - | - |
| 1777940406 | 30° C | 21% | 1008.9 hPa | 0 mm | - | - | - |
| 1777939921 | 30.56° C | 20% | 1008.9 hPa | 0 mm | - | - | - |
| 1777939391 | 32.22° C | 18% | 1008.9 hPa | 0 mm | - | - | - |
| 1777938886 | 0° C | 100% | 1009.2 hPa | 0 mm | - | - | - |
| 1777938381 | 0° C | 100% | 1009.1 hPa | 0 mm | - | - | - |
| 1777937356 | 31.11° C | 21% | 1009 hPa | 0 mm | - | - | - |
| 1777936761 | 36.11° C | 16% | 1009 hPa | 0 mm | - | - | - |
| 1777936182 | 38.33° C | 15% | 1009.3 hPa | 0 mm | - | - | - |
| 1777935620 | 31.67° C | 20% | 1009.2 hPa | 0 mm | - | - | - |
| 1777935141 | 31.11° C | 22% | 1009.2 hPa | 0 mm | - | - | - |
| 1777934601 | 30.56° C | 21% | 1009.3 hPa | 0 mm | - | - | - |
| 1777933601 | 34.44° C | 18% | 1009.6 hPa | 0 mm | - | - | - |
| 1777933017 | 37.78° C | 16% | 1009.5 hPa | 0 mm | - | - | - |
| 1777932436 | 0° C | 100% | 1009.5 hPa | 0 mm | - | - | - |
| 1777931861 | 31.11° C | 21% | 1009.7 hPa | 0 mm | - | - | - |
| 1777931281 | 26.67° C | 26% | 1009.7 hPa | 0 mm | - | - | - |
| 1777930791 | 26.11° C | 27% | 1010 hPa | 0 mm | - | - | - |
| 1777930241 | 0° C | 100% | 1010.4 hPa | 0 mm | - | - | - |
| 1777929121 | 25.56° C | 28% | 1010.2 hPa | 0 mm | - | - | - |
| 1777928566 | 0° C | 100% | 1010.2 hPa | 0 mm | - | - | - |
* Rain latest hour (hover to see other rain measurements)
** Current wind speed in m/s (hover to see current wind gust speed)